createdAt,value
2018-06-18T00:00:03.195Z,100721.69
2018-06-18T00:01:10.365Z,100714.71
2018-06-18T00:02:17.838Z,100715.40
2018-06-18T00:03:25.724Z,100709.36
2018-06-18T00:04:33.135Z,100711.73
2018-06-18T00:05:41.440Z,100708.81
2018-06-18T00:06:49.121Z,100709.50
2018-06-18T00:07:56.142Z,100709.02
2018-06-18T00:09:03.359Z,100710.05
2018-06-18T00:10:11.292Z,100711.75
2018-06-18T00:11:19.835Z,100710.63
2018-06-18T00:12:27.350Z,100710.63
2018-06-18T00:13:34.585Z,100713.00
2018-06-18T00:14:44.746Z,100707.30
2018-06-18T00:15:52.929Z,100714.91
2018-06-18T00:17:01.231Z,100716.38
2018-06-18T00:18:11.095Z,100713.22
2018-06-18T00:19:18.739Z,100716.84
2018-06-18T00:20:26.239Z,100713.73
2018-06-18T00:21:37.036Z,100716.52
2018-06-18T00:22:45.395Z,100719.58
2018-06-18T00:23:55.696Z,100723.38
2018-06-18T00:25:04.114Z,100727.23
2018-06-18T00:26:12.167Z,100725.36
2018-06-18T00:27:19.675Z,100728.63
2018-06-18T00:28:35.956Z,100725.06
2018-06-18T00:29:44.935Z,100729.98
2018-06-18T00:30:53.222Z,100729.41
2018-06-18T00:32:00.756Z,100730.41
2018-06-18T00:33:09.732Z,100727.03
2018-06-18T00:34:17.616Z,100727.66
2018-06-18T00:35:25.271Z,100731.14
2018-06-18T00:36:33.654Z,100736.60
2018-06-18T00:37:40.814Z,100733.05
2018-06-18T00:38:48.120Z,100733.05
2018-06-18T00:39:55.456Z,100729.91
2018-06-18T00:41:02.874Z,100734.92
2018-06-18T00:42:11.876Z,100735.18
2018-06-18T00:43:19.708Z,100729.42
2018-06-18T00:44:27.712Z,100730.08
2018-06-18T00:45:35.170Z,100733.30
2018-06-18T00:46:42.363Z,100730.84
2018-06-18T00:47:49.729Z,100731.91
2018-06-18T00:48:57.052Z,100731.91
2018-06-18T00:50:04.185Z,100734.33
2018-06-18T00:51:11.652Z,100734.37
2018-06-18T00:52:19.678Z,100728.80
2018-06-18T00:53:26.927Z,100733.14
2018-06-18T00:54:35.694Z,100733.90
2018-06-18T00:55:55.226Z,100733.00
2018-06-18T00:57:02.443Z,100738.67
2018-06-18T00:58:09.803Z,100731.94
2018-06-18T00:59:17.001Z,100739.20
2018-06-18T01:00:24.228Z,100737.31
2018-06-18T01:01:31.046Z,100736.39
2018-06-18T01:02:38.602Z,100734.78
2018-06-18T01:03:45.758Z,100733.32
2018-06-18T01:04:59.375Z,100734.38
2018-06-18T01:06:07.739Z,100730.66
2018-06-18T01:07:15.160Z,100729.20
2018-06-18T01:08:22.970Z,100730.45
2018-06-18T01:09:30.048Z,100728.31
2018-06-18T01:10:37.688Z,100732.94
2018-06-18T01:11:44.500Z,100730.50
2018-06-18T01:12:51.656Z,100726.30
2018-06-18T01:13:58.655Z,100730.88
2018-06-18T01:15:05.847Z,100730.97
2018-06-18T01:16:13.495Z,100725.97
2018-06-18T01:17:20.820Z,100726.99
2018-06-18T01:18:28.323Z,100728.02
2018-06-18T01:19:35.534Z,100731.02
2018-06-18T01:20:43.117Z,100728.27
2018-06-18T01:21:51.430Z,100730.11
2018-06-18T01:22:58.793Z,100723.57
2018-06-18T01:24:06.047Z,100727.51
2018-06-18T01:25:13.409Z,100725.11
2018-06-18T01:26:21.644Z,100727.80
2018-06-18T01:27:29.089Z,100731.75
2018-06-18T01:28:37.326Z,100733.41
2018-06-18T01:29:44.389Z,100728.19
2018-06-18T01:30:53.001Z,100733.20
2018-06-18T01:32:01.335Z,100735.77
2018-06-18T01:33:08.962Z,100737.66
2018-06-18T01:34:16.336Z,100735.05
2018-06-18T01:35:23.575Z,100742.11
2018-06-18T01:36:30.700Z,100738.34
2018-06-18T01:37:38.873Z,100739.16
2018-06-18T01:38:47.121Z,100738.39
2018-06-18T01:39:54.775Z,100742.70
2018-06-18T01:41:01.933Z,100739.80
2018-06-18T01:42:09.258Z,100738.68
2018-06-18T01:43:17.478Z,100738.52
2018-06-18T01:44:24.893Z,100737.53
2018-06-18T01:45:32.899Z,100742.58
2018-06-18T01:46:40.951Z,100746.48
2018-06-18T01:47:48.025Z,100742.62
2018-06-18T01:48:55.434Z,100740.19
2018-06-18T01:50:03.881Z,100744.72
2018-06-18T01:51:11.038Z,100741.69
2018-06-18T01:52:18.199Z,100749.56
2018-06-18T01:53:26.372Z,100747.77
2018-06-18T01:54:35.241Z,100745.31
2018-06-18T01:55:42.665Z,100751.73
2018-06-18T01:56:50.925Z,100747.85
2018-06-18T01:57:59.446Z,100746.65
2018-06-18T01:59:08.034Z,100758.00
2018-06-18T02:00:15.591Z,100750.55
2018-06-18T02:01:22.862Z,100751.48
2018-06-18T02:02:31.493Z,100745.75
2018-06-18T02:03:39.731Z,100745.41
2018-06-18T02:04:47.698Z,100756.20
2018-06-18T02:05:55.130Z,100758.17
2018-06-18T02:07:03.355Z,100763.22
2018-06-18T02:08:10.981Z,100765.58
2018-06-18T02:09:18.362Z,100764.22
2018-06-18T02:10:25.979Z,100763.44
2018-06-18T02:11:33.306Z,100764.00
2018-06-18T02:12:41.338Z,100768.70
2018-06-18T02:13:48.992Z,100761.94
2018-06-18T02:14:56.903Z,100765.16
2018-06-18T02:16:04.733Z,100763.94
2018-06-18T02:17:12.465Z,100762.23
2018-06-18T02:18:19.666Z,100759.71
2018-06-18T02:19:29.667Z,100755.09
2018-06-18T02:20:36.804Z,100753.45
2018-06-18T02:21:43.880Z,100759.45
2018-06-18T02:22:52.756Z,100753.75
2018-06-18T02:24:00.455Z,100755.22
2018-06-18T02:25:07.597Z,100752.55
2018-06-18T02:26:14.438Z,100748.83
2018-06-18T02:27:22.181Z,100752.16
2018-06-18T02:30:07.656Z,100756.59
2018-06-18T02:33:02.322Z,100754.09
2018-06-18T02:34:39.409Z,100761.38
2018-06-18T02:36:14.888Z,100769.37
2018-06-18T02:37:52.862Z,100766.45
2018-06-18T02:39:11.913Z,100766.05
2018-06-18T02:40:23.910Z,100764.73
2018-06-18T02:41:30.119Z,100765.27
2018-06-18T02:42:36.320Z,100768.08
2018-06-18T02:43:43.432Z,100761.75
2018-06-18T02:44:50.780Z,100764.27
2018-06-18T02:45:56.994Z,100771.44
2018-06-18T02:47:03.219Z,100771.19
2018-06-18T02:48:09.215Z,100779.40
2018-06-18T02:49:15.269Z,100788.53
2018-06-18T02:50:21.485Z,100780.70
2018-06-18T02:51:27.717Z,100785.09
2018-06-18T02:52:33.925Z,100783.53
2018-06-18T02:53:40.166Z,100781.91
2018-06-18T02:54:46.385Z,100787.00
2018-06-18T02:55:52.607Z,100791.30
2018-06-18T02:56:58.856Z,100787.11
2018-06-18T02:58:04.744Z,100785.44
2018-06-18T02:59:11.572Z,100787.49
2018-06-18T03:00:18.557Z,100790.31
2018-06-18T03:01:24.813Z,100785.98
2018-06-18T03:02:30.764Z,100794.27
2018-06-18T03:03:36.984Z,100787.68
2018-06-18T03:04:43.187Z,100786.80
2018-06-18T03:05:49.409Z,100778.22
2018-06-18T03:06:55.637Z,100775.41
2018-06-18T03:08:01.599Z,100777.94
2018-06-18T03:09:07.829Z,100780.39
2018-06-18T03:10:14.928Z,100778.28
2018-06-18T03:11:21.161Z,100769.44
2018-06-18T03:12:27.345Z,100773.30
2018-06-18T03:13:33.572Z,100775.29
2018-06-18T03:14:39.840Z,100779.27
2018-06-18T03:15:46.033Z,100775.97
2018-06-18T03:16:52.291Z,100777.39
2018-06-18T03:17:58.488Z,100773.31
2018-06-18T03:19:04.523Z,100778.28
2018-06-18T03:20:15.959Z,100780.91
2018-06-18T03:23:12.757Z,100779.41
2018-06-18T03:24:32.193Z,100786.84
2018-06-18T03:27:33.203Z,100785.61
2018-06-18T03:29:09.052Z,100786.70
2018-06-18T03:30:31.549Z,100787.27
2018-06-18T03:31:39.014Z,100781.74
2018-06-18T03:32:46.978Z,100783.91
2018-06-18T03:33:54.122Z,100791.75
2018-06-18T03:35:01.958Z,100789.99
2018-06-18T03:36:09.221Z,100792.66
2018-06-18T03:37:16.649Z,100787.72
2018-06-18T03:38:23.805Z,100787.33
2018-06-18T03:39:31.511Z,100787.84
2018-06-18T03:40:39.071Z,100788.33
2018-06-18T03:41:46.295Z,100785.27
2018-06-18T03:42:54.513Z,100789.69
2018-06-18T03:44:01.945Z,100795.59
2018-06-18T03:45:09.842Z,100793.09
2018-06-18T03:46:17.225Z,100792.19
2018-06-18T03:47:24.253Z,100794.21
2018-06-18T03:48:32.435Z,100792.98
2018-06-18T03:49:39.977Z,100798.32
2018-06-18T03:50:47.218Z,100792.35
2018-06-18T03:51:54.503Z,100793.78
2018-06-18T03:53:01.323Z,100792.66
2018-06-18T03:54:08.268Z,100806.39
2018-06-18T03:55:15.106Z,100794.96
2018-06-18T03:56:23.370Z,100800.73
2018-06-18T03:57:30.894Z,100805.83
2018-06-18T03:58:39.279Z,100801.06
2018-06-18T03:59:47.207Z,100808.38
2018-06-18T04:00:54.232Z,100811.58
2018-06-18T04:03:51.629Z,100813.30
2018-06-18T04:05:17.432Z,100812.73
2018-06-18T04:07:58.851Z,100816.52
2018-06-18T04:09:06.232Z,100811.44
2018-06-18T04:11:52.405Z,100822.56
2018-06-18T04:12:59.995Z,100828.67
2018-06-18T04:14:06.950Z,100827.56
2018-06-18T04:15:13.835Z,100820.27
2018-06-18T04:16:20.770Z,100817.40
2018-06-18T04:17:27.325Z,100819.93
2018-06-18T04:18:34.253Z,100821.53
2018-06-18T04:19:41.687Z,100819.55
2018-06-18T04:20:49.459Z,100821.07
2018-06-18T04:21:56.669Z,100818.70
2018-06-18T04:23:03.881Z,100822.95
2018-06-18T04:24:10.075Z,100824.16
2018-06-18T04:25:16.321Z,100816.93
2018-06-18T04:26:22.544Z,100818.83
2018-06-18T04:27:28.744Z,100821.86
2018-06-18T04:28:35.912Z,100825.84
2018-06-18T04:29:42.124Z,100824.53
2018-06-18T04:30:48.311Z,100831.87
2018-06-18T04:31:54.549Z,100836.77
2018-06-18T04:33:00.777Z,100836.42
2018-06-18T04:34:06.339Z,100836.89
2018-06-18T04:35:12.595Z,100838.73
2018-06-18T04:36:18.815Z,100846.77
2018-06-18T04:37:24.884Z,100839.77
2018-06-18T04:38:31.479Z,100834.57
2018-06-18T04:39:37.935Z,100844.28
2018-06-18T04:40:44.192Z,100844.17
2018-06-18T04:41:53.958Z,100841.86
2018-06-18T04:44:50.659Z,100846.69
2018-06-18T04:46:10.685Z,100841.17
2018-06-18T04:49:14.835Z,100844.91
2018-06-18T04:50:52.005Z,100844.34
2018-06-18T04:52:13.451Z,100848.17
2018-06-18T04:53:20.962Z,100839.92
2018-06-18T04:54:28.761Z,100845.67
2018-06-18T04:55:36.315Z,100848.59
2018-06-18T04:56:45.638Z,100850.37
2018-06-18T04:57:54.331Z,100850.56
2018-06-18T04:59:02.572Z,100848.72
2018-06-18T05:00:08.907Z,100852.72
2018-06-18T05:01:16.828Z,100849.80
2018-06-18T05:02:25.324Z,100850.30
2018-06-18T05:03:33.361Z,100851.38
2018-06-18T05:04:42.383Z,100855.62
2018-06-18T05:05:50.857Z,100848.55
2018-06-18T05:06:58.054Z,100849.30
2018-06-18T05:08:08.826Z,100854.66
2018-06-18T05:09:16.437Z,100858.83
2018-06-18T05:10:25.305Z,100852.56
2018-06-18T05:11:34.899Z,100848.50
2018-06-18T05:12:43.070Z,100854.35
2018-06-18T05:13:51.510Z,100852.69
2018-06-18T05:14:58.530Z,100852.48
2018-06-18T05:16:05.883Z,100853.61
2018-06-18T05:17:13.823Z,100849.93
2018-06-18T05:18:21.458Z,100849.13
2018-06-18T05:19:30.288Z,100849.05
2018-06-18T05:20:40.009Z,100848.61
2018-06-18T05:21:47.242Z,100852.12
2018-06-18T05:22:54.658Z,100852.27
2018-06-18T05:24:01.931Z,100855.69
2018-06-18T05:25:10.103Z,100853.50
2018-06-18T05:26:17.339Z,100850.09
2018-06-18T05:27:25.852Z,100853.84
2018-06-18T05:28:34.043Z,100852.99
2018-06-18T05:29:41.183Z,100862.77
2018-06-18T05:30:49.249Z,100866.42
2018-06-18T05:31:57.739Z,100860.98
2018-06-18T05:33:05.317Z,100862.37
2018-06-18T05:34:13.460Z,100866.69
2018-06-18T05:35:22.832Z,100863.16
2018-06-18T05:36:30.830Z,100864.06
2018-06-18T05:37:38.062Z,100859.23
2018-06-18T05:38:45.616Z,100859.73
2018-06-18T05:39:54.086Z,100867.23
2018-06-18T05:41:02.356Z,100866.50
2018-06-18T05:42:09.740Z,100865.02
2018-06-18T05:43:17.076Z,100863.00
2018-06-18T05:44:24.506Z,100862.02
2018-06-18T05:45:33.119Z,100859.61
2018-06-18T05:46:40.893Z,100864.78
2018-06-18T05:47:49.125Z,100864.67
2018-06-18T05:48:56.965Z,100868.92
2018-06-18T05:50:04.289Z,100867.86
2018-06-18T05:51:12.231Z,100870.90
2018-06-18T05:52:20.592Z,100865.30
2018-06-18T05:53:28.967Z,100867.39
2018-06-18T05:54:36.914Z,100874.88
2018-06-18T05:55:45.265Z,100874.34
2018-06-18T05:56:52.809Z,100871.50
2018-06-18T05:58:00.414Z,100878.13
2018-06-18T05:59:07.642Z,100881.13
2018-06-18T06:00:14.355Z,100873.64
2018-06-18T06:01:21.511Z,100874.34
2018-06-18T06:02:28.008Z,100873.52
2018-06-18T06:03:34.972Z,100876.72
2018-06-18T06:04:41.590Z,100883.11
2018-06-18T06:05:48.116Z,100876.61
2018-06-18T06:06:54.638Z,100880.73
2018-06-18T06:08:00.961Z,100881.29
2018-06-18T06:09:07.117Z,100886.78
2018-06-18T06:10:13.535Z,100888.89
2018-06-18T06:11:20.915Z,100890.56
2018-06-18T06:12:27.834Z,100894.27
2018-06-18T06:13:34.390Z,100897.55
2018-06-18T06:14:41.054Z,100895.94
2018-06-18T06:15:48.651Z,100898.91
2018-06-18T06:16:56.986Z,100898.72
2018-06-18T06:18:04.093Z,100894.09
2018-06-18T06:19:10.418Z,100894.80
2018-06-18T06:20:17.112Z,100895.47
2018-06-18T06:21:23.572Z,100887.20
2018-06-18T06:22:30.285Z,100890.77
2018-06-18T06:23:37.096Z,100892.05
2018-06-18T06:24:44.194Z,100887.92
2018-06-18T06:25:50.988Z,100884.51
2018-06-18T06:26:57.355Z,100883.86
2018-06-18T06:28:04.210Z,100884.18
2018-06-18T06:29:11.931Z,100887.78
2018-06-18T06:30:19.385Z,100888.41
2018-06-18T06:31:27.971Z,100894.38
2018-06-18T06:32:36.151Z,100886.08
2018-06-18T06:33:43.519Z,100891.19
2018-06-18T06:34:50.811Z,100891.58
2018-06-18T06:35:58.488Z,100893.63
2018-06-18T06:37:05.958Z,100896.86
2018-06-18T06:38:13.671Z,100902.84
2018-06-18T06:39:20.877Z,100902.59
2018-06-18T06:40:28.222Z,100898.80
2018-06-18T06:41:36.399Z,100904.58
2018-06-18T06:42:44.842Z,100901.97
2018-06-18T06:43:52.880Z,100904.60
2018-06-18T06:45:00.209Z,100905.54
2018-06-18T06:46:07.948Z,100898.05
2018-06-18T06:47:15.152Z,100909.52
2018-06-18T06:48:23.106Z,100907.77
2018-06-18T06:49:30.079Z,100911.85
2018-06-18T06:50:37.142Z,100920.75
2018-06-18T06:51:44.380Z,100910.09
2018-06-18T06:52:51.783Z,100912.33
2018-06-18T06:53:58.630Z,100913.53
2018-06-18T06:55:05.236Z,100916.92
2018-06-18T06:56:12.969Z,100918.80
2018-06-18T06:57:20.701Z,100909.28
2018-06-18T06:58:27.893Z,100910.66
2018-06-18T06:59:37.345Z,100916.66
2018-06-18T07:00:45.809Z,100914.97
2018-06-18T07:01:54.788Z,100917.34
2018-06-18T07:03:03.385Z,100909.04
2018-06-18T07:04:10.659Z,100912.56
2018-06-18T07:05:18.864Z,100906.20
2018-06-18T07:06:26.102Z,100895.61
2018-06-18T07:07:33.306Z,100900.75
2018-06-18T07:08:42.658Z,100898.95
2018-06-18T07:09:51.340Z,100898.25
2018-06-18T07:10:58.391Z,100902.21
2018-06-18T07:12:05.815Z,100905.92
2018-06-18T07:13:13.131Z,100908.81
2018-06-18T07:14:20.658Z,100908.75
2018-06-18T07:15:27.774Z,100915.37
2018-06-18T07:16:35.981Z,100908.58
2018-06-18T07:17:43.187Z,100913.61
2018-06-18T07:18:50.779Z,100914.16
2018-06-18T07:19:59.048Z,100917.12
2018-06-18T07:21:07.209Z,100915.12
2018-06-18T07:22:14.026Z,100916.86
2018-06-18T07:23:20.656Z,100916.14
2018-06-18T07:24:27.265Z,100916.19
2018-06-18T07:25:33.792Z,100916.00
2018-06-18T07:26:40.700Z,100915.49
2018-06-18T07:27:47.972Z,100915.88
2018-06-18T07:28:55.280Z,100909.36
2018-06-18T07:30:01.840Z,100910.03
2018-06-18T07:31:08.498Z,100916.16
2018-06-18T07:32:15.168Z,100920.84
2018-06-18T07:33:21.458Z,100928.12
2018-06-18T07:34:28.267Z,100925.45
2018-06-18T07:35:36.935Z,100935.33
2018-06-18T07:36:44.992Z,100943.95
2018-06-18T07:37:52.486Z,100941.10
2018-06-18T07:39:01.107Z,100942.25
2018-06-18T07:40:08.483Z,100939.40
2018-06-18T07:41:16.034Z,100944.00
2018-06-18T07:42:24.699Z,100942.72
2018-06-18T07:43:32.097Z,100943.13
2018-06-18T07:44:39.392Z,100939.20
2018-06-18T07:45:46.731Z,100941.11
2018-06-18T07:46:53.998Z,100932.88
2018-06-18T07:48:03.156Z,100933.59
2018-06-18T07:49:11.992Z,100934.67
2018-06-18T07:50:19.605Z,100931.97
2018-06-18T07:51:27.907Z,100934.55
2018-06-18T07:52:34.779Z,100937.42
2018-06-18T07:53:40.948Z,100937.36
2018-06-18T07:54:47.124Z,100933.52
2018-06-18T07:55:53.340Z,100931.59
2018-06-18T07:56:59.576Z,100932.66
2018-06-18T07:58:05.752Z,100942.44
2018-06-18T07:59:11.961Z,100937.98
2018-06-18T08:00:18.188Z,100940.73
2018-06-18T08:01:24.413Z,100936.09
2018-06-18T08:02:30.624Z,100939.36
2018-06-18T08:03:36.949Z,100933.66
2018-06-18T08:04:43.048Z,100934.26
2018-06-18T08:05:50.003Z,100938.12
2018-06-18T08:06:56.422Z,100939.70
2018-06-18T08:08:02.641Z,100936.03
2018-06-18T08:09:08.864Z,100928.63
2018-06-18T08:10:15.138Z,100933.39
2018-06-18T08:11:20.677Z,100929.64
2018-06-18T08:12:26.923Z,100936.03
2018-06-18T08:13:33.553Z,100925.78
2018-06-18T08:14:39.826Z,100930.75
2018-06-18T08:15:46.055Z,100933.81
2018-06-18T08:16:52.259Z,100934.11
2018-06-18T08:17:58.532Z,100930.35
2018-06-18T08:19:04.428Z,100934.77
2018-06-18T08:20:10.397Z,100932.44
2018-06-18T08:21:16.775Z,100938.33
2018-06-18T08:22:23.876Z,100931.95
2018-06-18T08:23:30.084Z,100933.82
2018-06-18T08:24:36.335Z,100934.73
2018-06-18T08:25:42.532Z,100934.59
2018-06-18T08:26:48.776Z,100938.52
2018-06-18T08:27:55.046Z,100936.56
2018-06-18T08:29:01.229Z,100938.39
2018-06-18T08:30:07.437Z,100934.28
2018-06-18T08:31:13.672Z,100939.67
2018-06-18T08:32:19.935Z,100941.98
2018-06-18T08:33:26.393Z,100937.41
2018-06-18T08:34:32.600Z,100938.97
2018-06-18T08:35:38.775Z,100938.37
2018-06-18T08:36:45.038Z,100941.25
2018-06-18T08:37:51.281Z,100937.85
2018-06-18T08:38:57.192Z,100938.80
2018-06-18T08:40:03.119Z,100940.84
2018-06-18T08:41:09.097Z,100937.02
2018-06-18T08:42:15.556Z,100939.03
2018-06-18T08:43:21.800Z,100935.91
2018-06-18T08:44:28.013Z,100937.05
2018-06-18T08:45:34.234Z,100936.56
2018-06-18T08:46:40.180Z,100936.98
2018-06-18T08:47:46.954Z,100935.99
2018-06-18T08:48:54.398Z,100935.77
2018-06-18T08:50:02.399Z,100931.48
2018-06-18T08:53:01.282Z,100928.11
2018-06-18T08:54:38.651Z,100935.34
2018-06-18T08:56:17.347Z,100928.52
2018-06-18T08:57:53.188Z,100927.38
2018-06-18T08:59:28.491Z,100928.42
2018-06-18T09:00:55.854Z,100924.81
2018-06-18T09:02:03.065Z,100926.84
2018-06-18T09:03:11.399Z,100929.00
2018-06-18T09:04:18.592Z,100928.31
2018-06-18T09:05:25.954Z,100929.94
2018-06-18T09:06:34.155Z,100924.72
2018-06-18T09:07:42.146Z,100918.71
2018-06-18T09:08:52.027Z,100929.16
2018-06-18T09:10:01.154Z,100929.20
2018-06-18T09:11:09.588Z,100923.39
2018-06-18T09:12:17.129Z,100924.54
2018-06-18T09:13:24.449Z,100923.52
2018-06-18T09:14:31.773Z,100926.38
2018-06-18T09:15:39.370Z,100924.17
2018-06-18T09:16:46.845Z,100923.87
2018-06-18T09:17:54.453Z,100925.52
2018-06-18T09:19:01.143Z,100927.94
2018-06-18T09:20:07.165Z,100922.14
2018-06-18T09:21:13.387Z,100925.82
2018-06-18T09:22:19.645Z,100924.63
2018-06-18T09:23:26.368Z,100919.72
2018-06-18T09:24:33.647Z,100913.24
2018-06-18T09:25:39.915Z,100918.25
2018-06-18T09:26:45.912Z,100914.87
2018-06-18T09:27:52.400Z,100908.54
2018-06-18T09:28:59.280Z,100907.52
2018-06-18T09:30:04.665Z,100909.19
2018-06-18T09:31:11.566Z,100909.91
2018-06-18T09:32:17.912Z,100908.94
2018-06-18T09:33:24.424Z,100904.28
2018-06-18T09:34:31.020Z,100907.48
2018-06-18T09:35:37.563Z,100912.52
2018-06-18T09:36:43.831Z,100919.20
2018-06-18T09:37:50.206Z,100916.66
2018-06-18T09:38:56.492Z,100912.34
2018-06-18T09:40:02.441Z,100914.58
2018-06-18T09:41:08.743Z,100904.37
2018-06-18T09:42:14.928Z,100906.97
2018-06-18T09:43:21.164Z,100904.09
2018-06-18T09:44:27.957Z,100903.81
2018-06-18T09:45:34.577Z,100900.20
2018-06-18T09:46:40.839Z,100906.21
2018-06-18T09:47:47.038Z,100898.13
2018-06-18T09:48:53.026Z,100907.77
2018-06-18T09:51:47.144Z,100900.69
2018-06-18T09:53:21.228Z,100893.83
2018-06-18T09:54:56.718Z,100895.86
2018-06-18T09:56:21.764Z,100900.44
2018-06-18T09:59:14.980Z,100895.69
2018-06-18T10:00:45.272Z,100900.25
2018-06-18T10:01:51.221Z,100899.72
2018-06-18T10:02:57.422Z,100893.70
2018-06-18T10:04:03.689Z,100898.19
2018-06-18T10:05:10.513Z,100894.64
2018-06-18T10:06:16.751Z,100890.13
2018-06-18T10:07:22.973Z,100884.08
2018-06-18T10:08:28.999Z,100888.55
2018-06-18T10:09:35.441Z,100892.50
2018-06-18T10:10:41.684Z,100885.66
2018-06-18T10:11:47.900Z,100885.48
2018-06-18T10:12:54.133Z,100877.07
2018-06-18T10:14:00.396Z,100879.36
2018-06-18T10:15:06.344Z,100876.12
2018-06-18T10:16:12.240Z,100876.24
2018-06-18T10:17:18.435Z,100879.71
2018-06-18T10:18:24.638Z,100874.91
2018-06-18T10:19:30.865Z,100877.91
2018-06-18T10:20:37.105Z,100893.14
2018-06-18T10:21:43.352Z,100881.39
2018-06-18T10:22:49.581Z,100879.25
2018-06-18T10:23:55.856Z,100875.39
2018-06-18T10:25:02.067Z,100875.95
2018-06-18T10:26:08.639Z,100884.05
2018-06-18T10:27:14.845Z,100884.39
2018-06-18T10:28:21.029Z,100887.46
2018-06-18T10:29:27.261Z,100886.83
2018-06-18T10:30:33.482Z,100881.95
2018-06-18T10:31:39.336Z,100892.70
2018-06-18T10:32:45.328Z,100893.21
2018-06-18T10:35:30.097Z,100879.41
2018-06-18T10:38:25.652Z,100879.37
2018-06-18T10:40:03.142Z,100874.67
2018-06-18T10:41:38.160Z,100872.38
2018-06-18T10:43:15.345Z,100871.67
2018-06-18T10:44:21.580Z,100869.35
2018-06-18T10:45:27.786Z,100869.05
2018-06-18T10:46:34.047Z,100869.50
2018-06-18T10:47:40.257Z,100872.03
2018-06-18T10:48:46.463Z,100863.97
2018-06-18T10:49:52.695Z,100865.52
2018-06-18T10:50:58.985Z,100864.66
2018-06-18T10:52:05.461Z,100868.36
2018-06-18T10:53:12.421Z,100866.55
2018-06-18T10:54:18.712Z,100864.27
2018-06-18T10:55:24.981Z,100864.71
2018-06-18T10:56:31.230Z,100862.50
2018-06-18T10:57:37.144Z,100865.64
2018-06-18T10:58:43.382Z,100868.72
2018-06-18T10:59:49.639Z,100866.45
2018-06-18T11:00:55.900Z,100861.44
2018-06-18T11:02:02.109Z,100873.27
2018-06-18T11:03:08.338Z,100863.27
2018-06-18T11:04:14.324Z,100863.16
2018-06-18T11:05:20.317Z,100864.14
2018-06-18T11:06:25.965Z,100861.70
2018-06-18T11:07:32.709Z,100861.41
2018-06-18T11:08:39.639Z,100866.53
2018-06-18T11:09:45.876Z,100862.88
2018-06-18T11:10:52.157Z,100862.00
2018-06-18T11:11:58.382Z,100862.66
2018-06-18T11:13:04.688Z,100857.02
2018-06-18T11:14:10.946Z,100858.88
2018-06-18T11:15:17.200Z,100863.36
2018-06-18T11:16:23.497Z,100860.46
2018-06-18T11:17:29.463Z,100855.95
2018-06-18T11:20:13.136Z,100856.70
2018-06-18T11:21:24.736Z,100857.23
2018-06-18T11:22:30.773Z,100860.32
2018-06-18T11:25:24.763Z,100855.69
2018-06-18T11:26:49.428Z,100858.49
2018-06-18T11:27:55.229Z,100856.30
2018-06-18T11:29:01.458Z,100852.27
2018-06-18T11:30:07.387Z,100854.53
2018-06-18T11:31:13.795Z,100852.00
2018-06-18T11:32:20.319Z,100848.69
2018-06-18T11:33:26.670Z,100843.45
2018-06-18T11:34:33.220Z,100843.11
2018-06-18T11:35:39.477Z,100843.95
2018-06-18T11:36:45.973Z,100842.06
2018-06-18T11:37:52.233Z,100840.75
2018-06-18T11:38:58.463Z,100845.88
2018-06-18T11:40:04.873Z,100840.47
2018-06-18T11:41:11.322Z,100838.89
2018-06-18T11:42:18.169Z,100844.10
2018-06-18T11:43:24.705Z,100839.60
2018-06-18T11:44:31.117Z,100840.00
2018-06-18T11:45:37.418Z,100833.75
2018-06-18T11:46:43.713Z,100839.89
2018-06-18T11:47:49.269Z,100835.67
2018-06-18T11:48:55.246Z,100832.13
2018-06-18T11:50:01.538Z,100833.58
2018-06-18T11:51:07.775Z,100838.03
2018-06-18T11:52:14.015Z,100838.22
2018-06-18T11:53:20.262Z,100844.72
2018-06-18T11:54:26.986Z,100851.80
2018-06-18T11:55:34.384Z,100846.24
2018-06-18T11:56:40.634Z,100843.69
2018-06-18T11:57:46.905Z,100841.71
2018-06-18T11:58:52.931Z,100836.23
2018-06-18T12:01:48.970Z,100833.88
2018-06-18T12:03:23.053Z,100832.08
2018-06-18T12:04:59.585Z,100830.07
2018-06-18T12:06:24.891Z,100830.14
2018-06-18T12:09:24.603Z,100832.03
2018-06-18T12:10:44.352Z,100826.20
2018-06-18T12:11:49.889Z,100831.34
2018-06-18T12:12:56.198Z,100839.48
2018-06-18T12:14:02.240Z,100840.09
2018-06-18T12:15:08.761Z,100832.94
2018-06-18T12:16:15.638Z,100834.48
2018-06-18T12:17:21.872Z,100830.66
2018-06-18T12:18:28.084Z,100826.58
2018-06-18T12:19:34.090Z,100832.80
2018-06-18T12:20:40.420Z,100842.28
2018-06-18T12:21:46.705Z,100837.45
2018-06-18T12:22:53.765Z,100837.70
2018-06-18T12:23:59.709Z,100829.20
2018-06-18T12:25:06.003Z,100837.75
2018-06-18T12:26:13.209Z,100843.69
2018-06-18T12:27:19.968Z,100837.44
2018-06-18T12:28:26.576Z,100830.69
2018-06-18T12:29:32.915Z,100837.20
2018-06-18T12:30:40.585Z,100833.61
2018-06-18T12:31:47.738Z,100838.44
2018-06-18T12:32:54.741Z,100833.98
2018-06-18T12:34:00.999Z,100834.34
2018-06-18T12:35:07.424Z,100831.96
2018-06-18T12:36:13.812Z,100831.30
2018-06-18T12:37:19.912Z,100837.20
2018-06-18T12:38:25.933Z,100827.73
2018-06-18T12:39:32.907Z,100824.22
2018-06-18T12:40:39.708Z,100827.74
2018-06-18T12:41:45.504Z,100829.14
2018-06-18T12:42:51.968Z,100827.14
2018-06-18T12:43:58.375Z,100824.81
2018-06-18T12:45:03.817Z,100828.38
2018-06-18T12:46:15.579Z,100826.52
2018-06-18T12:49:11.860Z,100827.20
2018-06-18T12:50:49.784Z,100819.89
2018-06-18T12:52:28.573Z,100815.83
2018-06-18T12:54:04.188Z,100821.30
2018-06-18T12:55:41.087Z,100818.45
2018-06-18T12:57:00.450Z,100818.52
2018-06-18T12:58:07.279Z,100818.44
2018-06-18T12:59:13.515Z,100812.23
2018-06-18T13:00:19.659Z,100814.27
2018-06-18T13:01:26.320Z,100814.14
2018-06-18T13:02:32.746Z,100811.59
2018-06-18T13:03:38.867Z,100818.14
2018-06-18T13:04:45.768Z,100819.73
2018-06-18T13:05:51.988Z,100826.80
2018-06-18T13:06:57.895Z,100815.55
2018-06-18T13:08:05.572Z,100818.82
2018-06-18T13:09:11.580Z,100813.34
2018-06-18T13:10:18.161Z,100808.81
2018-06-18T13:11:24.360Z,100817.25
2018-06-18T13:12:30.582Z,100813.46
2018-06-18T13:13:36.835Z,100822.20
2018-06-18T13:14:42.816Z,100822.45
2018-06-18T13:15:51.063Z,100822.52
2018-06-18T13:16:57.422Z,100817.70
2018-06-18T13:18:03.608Z,100820.00
2018-06-18T13:19:10.139Z,100815.25
2018-06-18T13:20:16.963Z,100818.30
2018-06-18T13:21:23.361Z,100819.52
2018-06-18T13:22:30.476Z,100821.66
2018-06-18T13:23:37.365Z,100818.03
2018-06-18T13:24:45.280Z,100826.58
2018-06-18T13:25:52.655Z,100817.86
2018-06-18T13:26:59.561Z,100817.13
2018-06-18T13:28:06.042Z,100813.95
2018-06-18T13:29:13.130Z,100816.67
2018-06-18T13:30:19.438Z,100814.13
2018-06-18T13:31:27.938Z,100809.73
2018-06-18T13:32:33.868Z,100805.83